Time;durP1;ratioP1;P1;durP2;ratioP2;P2;SDS_P1;SDS_P2;PMS_P1;PMS_P2;Temp;Humidity;BMP_temperature;BMP_pressure;BME280_temperature;BME280_humidity;BME280_pressure;Samples;Min_cycle;Max_cycle;Signal;HPM_P1;HPM_P2
2023/03/28 00:01:33;;;;;;;;;;;1.00;99.90;;;;;;5067493;28;20332;-80
2023/03/28 00:04:00;;;;;;;;;;;1.00;99.90;;;;;;5089246;28;19945;-80
2023/03/28 00:06:26;;;;;;;;;;;1.10;99.90;;;;;;5088600;27;20380;-80
2023/03/28 00:08:52;;;;;;;;;;;1.10;99.90;;;;;;5079756;28;19982;-80
2023/03/28 00:11:19;;;;;;;;;;;1.10;99.90;;;;;;5064153;28;19924;-81
2023/03/28 00:13:45;;;;;;;;;;;1.10;99.90;;;;;;5075071;28;19928;-81
2023/03/28 00:16:11;;;;;;;;;;;1.10;99.90;;;;;;5094456;27;19963;-80
2023/03/28 00:18:37;;;;;;;;;;;1.10;99.90;;;;;;5101203;28;20009;-80
2023/03/28 00:21:06;;;;;;;;;;;1.10;99.90;;;;;;5092515;27;20480;-81
2023/03/28 00:23:34;;;;;;;;;;;1.10;99.90;;;;;;5109727;28;19927;-80
2023/03/28 00:26:03;;;;;;;;;;;1.20;99.90;;;;;;5060711;27;19930;-80
2023/03/28 00:28:29;;;;;;;;;;;1.10;99.90;;;;;;5121324;27;19930;-81
2023/03/28 00:31:00;;;;;;;;;;;1.10;99.90;;;;;;5076419;27;20655;-81
2023/03/28 00:33:27;;;;;;;;;;;1.10;99.90;;;;;;5075415;28;19924;-81
2023/03/28 00:35:54;;;;;;;;;;;1.10;99.90;;;;;;5067550;27;19932;-80
2023/03/28 00:38:20;;;;;;;;;;;1.00;99.90;;;;;;5107677;27;22143;-80
2023/03/28 00:40:47;;;;;;;;;;;1.00;99.90;;;;;;5077232;27;19931;-80
2023/03/28 00:43:13;;;;;;;;;;;1.00;99.90;;;;;;5070992;27;19928;-80
2023/03/28 00:45:39;;;;;;;;;;;1.00;99.90;;;;;;5072296;27;19978;-81
2023/03/28 00:48:10;;;;;;;;;;;1.00;99.90;;;;;;5067914;27;19924;-80
2023/03/28 00:50:37;;;;;;;;;;;1.00;99.90;;;;;;5084277;27;20022;-81
2023/03/28 00:53:05;;;;;;;;;;;1.00;99.90;;;;;;5102837;27;19972;-81
2023/03/28 00:55:34;;;;;;;;;;;1.00;99.90;;;;;;5069075;27;19979;-80
2023/03/28 00:58:02;;;;;;;;;;;0.90;99.90;;;;;;5096335;28;19928;-80
2023/03/28 01:00:29;;;;;;;;;;;0.90;99.90;;;;;;5086180;28;19928;-80
2023/03/28 01:02:57;;;;;;;;;;;0.90;99.90;;;;;;5073360;28;20364;-80
2023/03/28 01:05:25;;;;;;;;;;;0.80;99.90;;;;;;5089632;28;20401;-80
2023/03/28 01:07:53;;;;;;;;;;;0.80;99.90;;;;;;5100294;28;19947;-81
2023/03/28 01:10:19;;;;;;;;;;;0.80;99.90;;;;;;5073578;28;19924;-80
2023/03/28 01:12:45;;;;;;;;;;;0.80;99.90;;;;;;5080815;28;19935;-80
2023/03/28 01:15:10;;;;;;;;;;;0.80;99.90;;;;;;5072336;28;20627;-80
2023/03/28 01:17:36;;;;;;;;;;;0.80;99.90;;;;;;5076874;28;19928;-80
2023/03/28 01:20:15;;;;;;;;;;;0.70;99.90;;;;;;5096175;28;19925;-80
2023/03/28 01:22:40;;;;;;;;;;;0.70;99.90;;;;;;5088271;28;19928;-80
2023/03/28 01:25:12;;;;;;;;;;;0.80;99.90;;;;;;5093093;28;19974;-81
2023/03/28 01:28:00;;;;;;;;;;;0.70;99.90;;;;;;5075328;28;19928;-80
2023/03/28 01:31:02;;;;;;;;;;;0.70;99.90;;;;;;5104572;28;19935;-80
2023/03/28 01:33:30;;;;;;;;;;;0.70;99.90;;;;;;5011069;28;19930;-80
2023/03/28 01:36:14;;;;;;;;;;;0.60;99.90;;;;;;5058003;28;19924;-80
2023/03/28 01:38:40;;;;;;;;;;;0.60;99.90;;;;;;5065971;28;20444;-81
2023/03/28 01:41:18;;;;;;;;;;;0.50;99.90;;;;;;5082961;28;19928;-80
2023/03/28 01:43:44;;;;;;;;;;;0.50;99.90;;;;;;5092623;28;19924;-80
2023/03/28 01:46:15;;;;;;;;;;;0.50;99.90;;;;;;5102051;28;19932;-81
2023/03/28 01:49:01;;;;;;;;;;;0.40;99.90;;;;;;5117909;27;19940;-80
2023/03/28 01:51:30;;;;;;;;;;;0.40;99.90;;;;;;5076593;28;19924;-80
2023/03/28 01:54:13;;;;;;;;;;;0.40;99.90;;;;;;5083173;28;20007;-80
2023/03/28 01:56:46;;;;;;;;;;;0.40;99.90;;;;;;5089352;28;19924;-80
2023/03/28 01:59:14;;;;;;;;;;;0.40;99.90;;;;;;5117728;27;19934;-80
2023/03/28 02:01:46;;;;;;;;;;;0.40;99.90;;;;;;5117207;27;19924;-80
2023/03/28 02:04:16;;;;;;;;;;;0.40;99.90;;;;;;5072735;28;19956;-80
2023/03/28 02:06:45;;;;;;;;;;;0.40;99.90;;;;;;5082552;27;19923;-80
2023/03/28 02:09:13;;;;;;;;;;;0.40;99.90;;;;;;5057527;28;19928;-80
2023/03/28 02:11:40;;;;;;;;;;;0.40;99.90;;;;;;5071030;28;19970;-80
2023/03/28 02:14:07;;;;;;;;;;;0.40;99.90;;;;;;5109650;27;19942;-80
2023/03/28 02:16:40;;;;;;;;;;;0.40;99.90;;;;;;5088901;28;20323;-80
2023/03/28 02:19:07;;;;;;;;;;;0.40;99.90;;;;;;5074214;28;20279;-79
2023/03/28 02:21:55;;;;;;;;;;;0.40;99.90;;;;;;5114156;27;19924;-80
2023/03/28 02:24:22;;;;;;;;;;;0.40;99.90;;;;;;5100622;28;19932;-80
2023/03/28 02:26:47;;;;;;;;;;;0.30;99.90;;;;;;5101403;28;19928;-80
2023/03/28 02:29:14;;;;;;;;;;;0.40;99.90;;;;;;5067406;28;19927;-80
2023/03/28 02:31:40;;;;;;;;;;;0.30;99.90;;;;;;5091044;28;19931;-80
2023/03/28 02:34:07;;;;;;;;;;;0.30;99.90;;;;;;5077529;28;20393;-80
2023/03/28 02:36:36;;;;;;;;;;;0.30;99.90;;;;;;5070679;28;20825;-80
2023/03/28 02:39:26;;;;;;;;;;;0.30;99.90;;;;;;5073666;28;19928;-80
2023/03/28 02:42:07;;;;;;;;;;;0.30;99.90;;;;;;5076465;28;20345;-80
2023/03/28 02:44:36;;;;;;;;;;;0.30;99.90;;;;;;5078413;28;20317;-79
2023/03/28 02:47:09;;;;;;;;;;;0.30;99.90;;;;;;5100279;27;19935;-80
2023/03/28 02:49:34;;;;;;;;;;;0.30;99.90;;;;;;5101067;28;19963;-80
2023/03/28 02:52:09;;;;;;;;;;;0.30;99.90;;;;;;5076376;28;19928;-80
2023/03/28 02:54:54;;;;;;;;;;;0.30;99.90;;;;;;5075857;28;19946;-80
2023/03/28 02:57:33;;;;;;;;;;;0.30;99.90;;;;;;5102966;28;19930;-79
2023/03/28 03:00:14;;;;;;;;;;;0.40;99.90;;;;;;5117489;28;19931;-79
2023/03/28 03:02:45;;;;;;;;;;;0.30;99.90;;;;;;5122663;28;20324;-80
2023/03/28 03:05:11;;;;;;;;;;;0.30;99.90;;;;;;5103915;28;19932;-80
2023/03/28 03:07:37;;;;;;;;;;;0.30;99.90;;;;;;5073194;28;19950;-79
2023/03/28 03:10:06;;;;;;;;;;;0.20;99.90;;;;;;5088912;28;20529;-80
2023/03/28 03:12:32;;;;;;;;;;;0.20;99.90;;;;;;5080673;28;19924;-80
2023/03/28 03:14:59;;;;;;;;;;;0.10;99.90;;;;;;5098660;28;19924;-79
2023/03/28 03:17:26;;;;;;;;;;;0.20;99.90;;;;;;5061654;28;20620;-80
2023/03/28 03:19:51;;;;;;;;;;;0.20;99.90;;;;;;5071663;28;20018;-80
2023/03/28 03:22:17;;;;;;;;;;;0.20;99.90;;;;;;5072056;28;19985;-80
2023/03/28 03:24:43;;;;;;;;;;;0.20;99.90;;;;;;5086142;28;19977;-80
2023/03/28 03:27:09;;;;;;;;;;;0.20;99.90;;;;;;5068596;28;19962;-79
2023/03/28 03:29:34;;;;;;;;;;;0.20;99.90;;;;;;5074091;28;19932;-79
2023/03/28 03:32:00;;;;;;;;;;;0.10;99.90;;;;;;5079296;28;19928;-80
2023/03/28 03:34:26;;;;;;;;;;;0.10;99.90;;;;;;5064920;28;20294;-79
2023/03/28 03:36:55;;;;;;;;;;;0.10;99.90;;;;;;5116367;28;19928;-79
2023/03/28 03:39:20;;;;;;;;;;;0.10;99.90;;;;;;5092595;28;19928;-80
2023/03/28 03:41:46;;;;;;;;;;;0.10;99.90;;;;;;5088951;28;20251;-79
2023/03/28 03:44:12;;;;;;;;;;;0.10;99.90;;;;;;5117402;28;19932;-80
2023/03/28 03:46:37;;;;;;;;;;;0.10;99.90;;;;;;5081712;28;19927;-80
2023/03/28 03:49:03;;;;;;;;;;;0.10;99.90;;;;;;5083125;28;19925;-79
2023/03/28 03:51:28;;;;;;;;;;;0.10;99.90;;;;;;5103779;28;19928;-80
2023/03/28 03:53:56;;;;;;;;;;;0.10;99.90;;;;;;5107322;28;19982;-79
2023/03/28 03:56:22;;;;;;;;;;;0.00;99.90;;;;;;5082387;28;19970;-79
2023/03/28 03:58:48;;;;;;;;;;;0.00;99.90;;;;;;5095318;27;19924;-79
2023/03/28 04:01:13;;;;;;;;;;;0.00;99.90;;;;;;5076850;28;19931;-79
2023/03/28 04:03:42;;;;;;;;;;;0.00;99.90;;;;;;5074382;27;19931;-79
2023/03/28 04:06:08;;;;;;;;;;;0.00;99.90;;;;;;5077295;27;19934;-79
2023/03/28 04:08:34;;;;;;;;;;;0.00;99.90;;;;;;5073700;27;19983;-79
2023/03/28 04:10:59;;;;;;;;;;;0.00;99.90;;;;;;5091399;28;19928;-79
2023/03/28 04:13:25;;;;;;;;;;;-0.10;99.90;;;;;;5075746;28;20466;-79
2023/03/28 04:15:50;;;;;;;;;;;-0.10;99.90;;;;;;5066765;27;19938;-80
2023/03/28 04:18:19;;;;;;;;;;;0.00;99.90;;;;;;5118291;27;19923;-79
2023/03/28 04:20:48;;;;;;;;;;;-0.10;99.90;;;;;;5097073;27;19935;-79
2023/03/28 04:23:19;;;;;;;;;;;0.00;99.90;;;;;;5106460;27;19932;-79
2023/03/28 04:25:48;;;;;;;;;;;-0.10;99.90;;;;;;5081140;28;19977;-79
2023/03/28 04:28:15;;;;;;;;;;;0.00;99.90;;;;;;5084005;27;19955;-79
2023/03/28 04:30:42;;;;;;;;;;;0.00;99.90;;;;;;5073285;28;19935;-79
2023/03/28 04:33:07;;;;;;;;;;;0.10;99.90;;;;;;5069897;28;19928;-79
2023/03/28 04:35:35;;;;;;;;;;;0.10;99.90;;;;;;5102613;28;19930;-79
2023/03/28 04:38:01;;;;;;;;;;;0.20;99.90;;;;;;5105339;27;20172;-79
2023/03/28 04:40:28;;;;;;;;;;;0.20;99.90;;;;;;5074970;28;19924;-79
2023/03/28 04:42:54;;;;;;;;;;;0.30;99.90;;;;;;5084899;28;20389;-79
2023/03/28 04:45:19;;;;;;;;;;;0.30;99.90;;;;;;5101249;28;19927;-79
2023/03/28 04:47:45;;;;;;;;;;;0.40;99.90;;;;;;5084175;28;19924;-80
2023/03/28 04:50:12;;;;;;;;;;;0.50;99.90;;;;;;5074823;28;19971;-79
2023/03/28 04:52:37;;;;;;;;;;;0.70;99.90;;;;;;5069610;28;20030;-79
2023/03/28 04:55:03;;;;;;;;;;;0.70;99.90;;;;;;5082184;27;19963;-80
2023/03/28 04:57:29;;;;;;;;;;;0.80;99.90;;;;;;5075371;28;20442;-79
2023/03/28 04:59:55;;;;;;;;;;;0.90;99.90;;;;;;5087488;28;19924;-79
2023/03/28 05:02:21;;;;;;;;;;;0.90;99.90;;;;;;5069033;28;19927;-79
2023/03/28 05:04:46;;;;;;;;;;;1.00;99.90;;;;;;5064972;28;19924;-80
2023/03/28 05:07:12;;;;;;;;;;;1.00;99.90;;;;;;5076784;28;19935;-80
2023/03/28 05:09:37;;;;;;;;;;;1.10;99.90;;;;;;5102749;28;19931;-80
2023/03/28 05:12:03;;;;;;;;;;;1.10;99.90;;;;;;5103861;27;19954;-80
2023/03/28 05:14:29;;;;;;;;;;;1.10;99.90;;;;;;5094143;27;20002;-80
2023/03/28 05:16:54;;;;;;;;;;;1.10;99.90;;;;;;5067200;28;19928;-80
2023/03/28 05:19:21;;;;;;;;;;;1.00;99.90;;;;;;5119456;27;19927;-80
2023/03/28 05:21:47;;;;;;;;;;;1.00;99.90;;;;;;5085425;28;19983;-80
2023/03/28 05:24:12;;;;;;;;;;;0.90;99.90;;;;;;5091607;28;19928;-80
2023/03/28 05:26:38;;;;;;;;;;;1.00;99.90;;;;;;5070707;28;19932;-80
2023/03/28 05:29:04;;;;;;;;;;;1.00;99.90;;;;;;5071168;28;19931;-79
2023/03/28 05:31:29;;;;;;;;;;;0.90;99.90;;;;;;5096223;28;20388;-79
2023/03/28 05:33:55;;;;;;;;;;;1.00;99.90;;;;;;5070782;28;19940;-80
2023/03/28 05:36:22;;;;;;;;;;;1.10;99.90;;;;;;5090523;27;19938;-80
2023/03/28 05:38:47;;;;;;;;;;;1.20;99.90;;;;;;5060682;28;20447;-80
2023/03/28 05:41:13;;;;;;;;;;;1.20;99.90;;;;;;5071530;28;19924;-80
2023/03/28 05:43:39;;;;;;;;;;;1.30;99.90;;;;;;5078437;28;19975;-80
2023/03/28 05:46:04;;;;;;;;;;;1.40;99.90;;;;;;5055928;28;19924;-80
2023/03/28 05:48:30;;;;;;;;;;;1.50;99.90;;;;;;5061466;28;19924;-80
2023/03/28 05:50:56;;;;;;;;;;;1.50;99.90;;;;;;5062385;27;19934;-80
2023/03/28 05:53:22;;;;;;;;;;;1.50;99.90;;;;;;5078286;28;19946;-80
2023/03/28 05:55:48;;;;;;;;;;;1.60;99.90;;;;;;5091923;28;20018;-81
2023/03/28 05:58:13;;;;;;;;;;;1.60;99.90;;;;;;5094721;27;19961;-80
2023/03/28 06:00:41;;;;;;;;;;;1.60;99.90;;;;;;5072496;27;19968;-80
2023/03/28 06:03:07;;;;;;;;;;;1.70;99.90;;;;;;5077727;28;19923;-80
2023/03/28 06:05:32;;;;;;;;;;;1.80;99.90;;;;;;5065610;27;20070;-80
2023/03/28 06:07:58;;;;;;;;;;;1.80;99.90;;;;;;5067883;28;20306;-80
2023/03/28 06:10:24;;;;;;;;;;;1.80;99.90;;;;;;5062872;27;19923;-80
2023/03/28 06:12:50;;;;;;;;;;;1.90;99.90;;;;;;5075881;28;19924;-80
2023/03/28 06:15:16;;;;;;;;;;;2.00;99.90;;;;;;5125046;27;19963;-81
2023/03/28 06:17:41;;;;;;;;;;;2.10;99.90;;;;;;5068133;27;19980;-80
2023/03/28 06:20:08;;;;;;;;;;;2.10;99.90;;;;;;5084190;27;19923;-80
2023/03/28 06:22:35;;;;;;;;;;;2.10;99.90;;;;;;5093083;28;19997;-81
2023/03/28 06:25:01;;;;;;;;;;;2.20;99.90;;;;;;5071737;28;19939;-81
2023/03/28 06:27:27;;;;;;;;;;;2.30;99.90;;;;;;5077699;28;19923;-81
2023/03/28 06:29:52;;;;;;;;;;;2.30;99.90;;;;;;5080513;27;20069;-81
2023/03/28 06:32:18;;;;;;;;;;;2.50;99.90;;;;;;5085795;28;19924;-81
2023/03/28 06:34:44;;;;;;;;;;;2.50;99.90;;;;;;5114849;28;19959;-81
2023/03/28 06:37:09;;;;;;;;;;;2.60;99.90;;;;;;5065932;28;20007;-81
2023/03/28 06:39:35;;;;;;;;;;;2.70;99.90;;;;;;5072603;28;19971;-81
2023/03/28 06:42:02;;;;;;;;;;;2.80;99.90;;;;;;5074304;27;19928;-81
2023/03/28 06:44:28;;;;;;;;;;;2.90;99.90;;;;;;5093681;27;19924;-81
2023/03/28 06:46:54;;;;;;;;;;;2.90;99.90;;;;;;5067473;28;20010;-80
2023/03/28 06:49:20;;;;;;;;;;;2.90;99.90;;;;;;5083344;28;19923;-81
2023/03/28 06:51:45;;;;;;;;;;;3.00;99.90;;;;;;5061689;27;19928;-80
2023/03/28 06:54:11;;;;;;;;;;;3.00;99.90;;;;;;5067409;28;20326;-80
2023/03/28 06:56:36;;;;;;;;;;;3.10;99.90;;;;;;5067703;28;19946;-81
2023/03/28 06:59:02;;;;;;;;;;;3.10;99.90;;;;;;5083251;28;19924;-81
2023/03/28 07:01:28;;;;;;;;;;;3.10;99.90;;;;;;5097084;28;19939;-81
2023/03/28 07:03:53;;;;;;;;;;;3.20;99.90;;;;;;5077631;28;19931;-80
2023/03/28 07:06:19;;;;;;;;;;;3.20;99.90;;;;;;5067325;28;19924;-80
2023/03/28 07:08:45;;;;;;;;;;;3.30;99.90;;;;;;5084672;28;20004;-80
2023/03/28 07:11:10;;;;;;;;;;;3.40;99.90;;;;;;5113800;28;19931;-81
2023/03/28 07:13:36;;;;;;;;;;;3.50;99.90;;;;;;5090501;28;19929;-80
2023/03/28 07:16:03;;;;;;;;;;;3.60;99.90;;;;;;5060127;28;20309;-80
2023/03/28 07:18:28;;;;;;;;;;;3.70;99.90;;;;;;5071144;28;19931;-80
2023/03/28 07:20:54;;;;;;;;;;;3.80;99.90;;;;;;5071260;28;19925;-81
2023/03/28 07:23:20;;;;;;;;;;;3.90;99.90;;;;;;5058755;28;19932;-81
2023/03/28 07:25:45;;;;;;;;;;;4.00;99.90;;;;;;5079467;28;19928;-80
2023/03/28 07:28:11;;;;;;;;;;;4.30;99.90;;;;;;5068645;28;19932;-81
2023/03/28 07:30:37;;;;;;;;;;;4.60;99.90;;;;;;5071705;28;19932;-81
2023/03/28 07:33:02;;;;;;;;;;;5.40;99.90;;;;;;5104014;28;19924;-81
2023/03/28 07:35:28;;;;;;;;;;;6.20;99.90;;;;;;5089162;28;19924;-81
2023/03/28 07:37:53;;;;;;;;;;;7.00;99.90;;;;;;5074279;28;20318;-81
2023/03/28 07:40:19;;;;;;;;;;;7.60;99.90;;;;;;5077531;28;19962;-81
2023/03/28 07:42:46;;;;;;;;;;;8.20;99.90;;;;;;5080873;28;20305;-81
2023/03/28 07:45:12;;;;;;;;;;;8.80;99.90;;;;;;5083915;28;19942;-81
2023/03/28 07:47:38;;;;;;;;;;;9.30;99.90;;;;;;5083570;28;19987;-81
2023/03/28 07:50:03;;;;;;;;;;;9.50;99.90;;;;;;5109712;28;19966;-81
2023/03/28 07:52:29;;;;;;;;;;;9.60;99.90;;;;;;5085294;28;20020;-81
2023/03/28 07:54:55;;;;;;;;;;;9.60;99.90;;;;;;5100954;28;20376;-80
2023/03/28 07:57:20;;;;;;;;;;;9.60;99.90;;;;;;5085685;28;19928;-81
2023/03/28 07:59:49;;;;;;;;;;;9.70;99.90;;;;;;5099889;28;19924;-81
2023/03/28 08:02:15;;;;;;;;;;;9.90;99.90;;;;;;5078257;28;20393;-81
2023/03/28 08:04:40;;;;;;;;;;;10.20;99.90;;;;;;5066897;28;19924;-81
2023/03/28 08:07:06;;;;;;;;;;;10.40;99.90;;;;;;5060039;28;20047;-81
2023/03/28 08:09:32;;;;;;;;;;;10.70;99.90;;;;;;5067724;28;19929;-81
2023/03/28 08:11:57;;;;;;;;;;;10.60;99.90;;;;;;5070854;28;19929;-80
2023/03/28 08:14:23;;;;;;;;;;;10.30;94.20;;;;;;5086633;28;19935;-79
2023/03/28 08:16:49;;;;;;;;;;;10.00;97.40;;;;;;5083245;28;19924;-80
2023/03/28 08:19:15;;;;;;;;;;;9.50;95.60;;;;;;5082849;28;19928;-80
2023/03/28 08:21:40;;;;;;;;;;;9.40;99.90;;;;;;5069329;28;19930;-80
2023/03/28 08:24:06;;;;;;;;;;;9.20;99.90;;;;;;5054802;28;19924;-80
2023/03/28 08:26:32;;;;;;;;;;;9.20;99.90;;;;;;5087829;28;19924;-80
2023/03/28 08:28:58;;;;;;;;;;;9.40;99.90;;;;;;5062000;28;19980;-81
2023/03/28 08:31:25;;;;;;;;;;;9.70;96.90;;;;;;5098665;28;19935;-80
2023/03/28 08:33:51;;;;;;;;;;;9.80;96.90;;;;;;5057530;28;19924;-80
2023/03/28 08:36:18;;;;;;;;;;;10.10;97.00;;;;;;5069539;28;19935;-81
2023/03/28 08:38:45;;;;;;;;;;;10.30;99.90;;;;;;5106029;28;20377;-80
2023/03/28 08:41:14;;;;;;;;;;;10.60;96.50;;;;;;5073646;28;19932;-81
2023/03/28 08:43:54;;;;;;;;;;;10.90;94.80;;;;;;5100425;28;20007;-81
2023/03/28 08:46:21;;;;;;;;;;;11.00;92.80;;;;;;5085200;28;19930;-80
2023/03/28 08:48:48;;;;;;;;;;;11.20;97.90;;;;;;5097537;28;20382;-80
2023/03/28 08:51:16;;;;;;;;;;;11.40;93.00;;;;;;5069757;28;19935;-80
2023/03/28 08:53:44;;;;;;;;;;;11.50;87.70;;;;;;5067883;28;19928;-81
2023/03/28 08:56:14;;;;;;;;;;;11.40;86.90;;;;;;5080398;28;20222;-81
2023/03/28 08:59:09;;;;;;;;;;;11.60;85.60;;;;;;5115420;28;20003;-81
2023/03/28 09:01:35;;;;;;;;;;;11.80;90.50;;;;;;5009696;28;19963;-80
2023/03/28 09:04:01;;;;;;;;;;;12.10;77.80;;;;;;5085149;28;19924;-81
2023/03/28 09:06:30;;;;;;;;;;;12.10;83.30;;;;;;5097618;28;19946;-80
2023/03/28 09:09:03;;;;;;;;;;;12.00;79.40;;;;;;5067866;28;19924;-81
2023/03/28 09:11:34;;;;;;;;;;;11.90;79.00;;;;;;5088658;28;19929;-80
2023/03/28 09:14:05;;;;;;;;;;;11.30;72.50;;;;;;5100202;28;19955;-81
2023/03/28 09:16:40;;;;;;;;;;;11.20;81.40;;;;;;5089986;28;20212;-81
2023/03/28 09:19:14;;;;;;;;;;;11.20;85.20;;;;;;5076773;28;20473;-82
2023/03/28 09:21:42;;;;;;;;;;;11.00;76.70;;;;;;5066833;28;19947;-82
2023/03/28 09:24:27;;;;;;;;;;;10.30;81.20;;;;;;5105115;28;19924;-81
2023/03/28 09:27:02;;;;;;;;;;;9.70;79.50;;;;;;5072973;28;20159;-81
2023/03/28 09:29:28;;;;;;;;;;;9.20;81.50;;;;;;5097154;28;19928;-81
2023/03/28 09:32:00;;;;;;;;;;;9.10;83.20;;;;;;5086799;28;20072;-81
2023/03/28 09:34:29;;;;;;;;;;;9.60;82.40;;;;;;5096272;28;19925;-81
2023/03/28 09:36:58;;;;;;;;;;;10.20;82.50;;;;;;5094942;28;19925;-81
2023/03/28 09:39:41;;;;;;;;;;;10.90;80.70;;;;;;5076434;28;19924;-80
2023/03/28 09:42:06;;;;;;;;;;;11.20;73.80;;;;;;5098769;28;19928;-82
2023/03/28 09:44:36;;;;;;;;;;;11.40;78.10;;;;;;5075694;28;19969;-81
2023/03/28 09:47:05;;;;;;;;;;;11.30;73.20;;;;;;5100407;28;21512;-81
2023/03/28 09:49:30;;;;;;;;;;;11.50;75.50;;;;;;5080463;28;19928;-80
2023/03/28 09:51:56;;;;;;;;;;;11.60;71.30;;;;;;5063454;28;19980;-81
2023/03/28 09:54:34;;;;;;;;;;;11.60;70.00;;;;;;5081479;28;19924;-81
2023/03/28 09:57:01;;;;;;;;;;;11.50;73.00;;;;;;5080759;28;19932;-81
2023/03/28 09:59:28;;;;;;;;;;;11.30;69.90;;;;;;5084476;28;19931;-81
2023/03/28 10:01:55;;;;;;;;;;;11.40;73.70;;;;;;5084161;28;19984;-81
2023/03/28 10:04:26;;;;;;;;;;;11.20;70.30;;;;;;5083577;28;19986;-81
2023/03/28 10:06:53;;;;;;;;;;;11.20;71.70;;;;;;5079006;28;19972;-81
2023/03/28 10:09:20;;;;;;;;;;;11.10;75.30;;;;;;5098221;27;19979;-82
2023/03/28 10:11:47;;;;;;;;;;;11.30;74.40;;;;;;5083481;28;19931;-81
2023/03/28 10:14:32;;;;;;;;;;;11.50;75.50;;;;;;5096929;28;19928;-80
2023/03/28 10:17:21;;;;;;;;;;;11.50;72.50;;;;;;5109136;28;20061;-80
2023/03/28 10:19:47;;;;;;;;;;;11.10;69.70;;;;;;5083269;27;19924;-81
2023/03/28 10:22:12;;;;;;;;;;;10.50;73.70;;;;;;5067839;28;19932;-81
2023/03/28 10:24:39;;;;;;;;;;;10.20;69.60;;;;;;5111612;28;19927;-81
2023/03/28 10:27:15;;;;;;;;;;;9.90;72.20;;;;;;5077971;28;19925;-81
2023/03/28 10:29:41;;;;;;;;;;;9.80;76.00;;;;;;5105336;28;19923;-81
2023/03/28 10:32:10;;;;;;;;;;;9.60;74.60;;;;;;5082932;28;20007;-82
2023/03/28 10:34:35;;;;;;;;;;;9.50;76.50;;;;;;5094590;28;20275;-81
2023/03/28 10:37:01;;;;;;;;;;;9.40;77.10;;;;;;5082972;28;19928;-81
2023/03/28 10:39:31;;;;;;;;;;;9.30;73.80;;;;;;5087035;27;19976;-81
2023/03/28 10:41:57;;;;;;;;;;;9.20;77.10;;;;;;5084251;28;20398;-82
2023/03/28 10:44:35;;;;;;;;;;;9.10;75.40;;;;;;5085918;28;20556;-81
2023/03/28 10:47:02;;;;;;;;;;;9.10;77.60;;;;;;5120992;27;19924;-81
2023/03/28 10:49:29;;;;;;;;;;;9.30;74.90;;;;;;5071695;28;20008;-81
2023/03/28 10:51:55;;;;;;;;;;;9.60;79.20;;;;;;5078395;28;19931;-81
2023/03/28 10:54:33;;;;;;;;;;;9.70;79.00;;;;;;5081418;28;19927;-81
2023/03/28 10:57:21;;;;;;;;;;;9.90;75.80;;;;;;5099777;28;19927;-81
2023/03/28 10:59:50;;;;;;;;;;;9.90;76.00;;;;;;5080188;28;20394;-81
2023/03/28 11:02:18;;;;;;;;;;;9.90;74.20;;;;;;5085242;28;20432;-82
2023/03/28 11:04:59;;;;;;;;;;;9.90;72.00;;;;;;5064786;28;20059;-81
2023/03/28 11:07:46;;;;;;;;;;;10.10;74.10;;;;;;5082731;28;19995;-81
2023/03/28 11:10:21;;;;;;;;;;;9.90;72.90;;;;;;5070268;28;19995;-82
2023/03/28 11:13:22;;;;;;;;;;;9.80;72.50;;;;;;5079714;28;19953;-81
2023/03/28 11:15:53;;;;;;;;;;;9.60;72.40;;;;;;4993076;28;19933;-81
2023/03/28 11:18:32;;;;;;;;;;;9.50;75.70;;;;;;5058650;28;19924;-81
2023/03/28 11:21:11;;;;;;;;;;;9.30;74.10;;;;;;5088287;28;19924;-81
2023/03/28 11:23:40;;;;;;;;;;;9.30;78.50;;;;;;5077733;28;19947;-80
2023/03/28 11:26:12;;;;;;;;;;;9.20;78.40;;;;;;5104851;28;19924;-81
2023/03/28 11:28:57;;;;;;;;;;;9.20;78.00;;;;;;5097031;28;19944;-82
2023/03/28 11:31:25;;;;;;;;;;;9.20;80.90;;;;;;5107035;28;19931;-81
2023/03/28 11:34:17;;;;;;;;;;;9.20;76.70;;;;;;5116282;28;19925;-81
2023/03/28 11:36:43;;;;;;;;;;;9.30;78.20;;;;;;5095689;28;20018;-81
2023/03/28 11:39:25;;;;;;;;;;;9.50;78.30;;;;;;5080764;28;19963;-81
2023/03/28 11:41:52;;;;;;;;;;;9.70;77.70;;;;;;5071633;28;19924;-81
2023/03/28 11:44:22;;;;;;;;;;;9.80;74.20;;;;;;5068486;28;19932;-81
2023/03/28 11:46:51;;;;;;;;;;;9.70;71.20;;;;;;5104309;28;19943;-80
2023/03/28 11:49:30;;;;;;;;;;;9.40;68.20;;;;;;5079126;28;19923;-81
2023/03/28 11:51:58;;;;;;;;;;;9.30;70.70;;;;;;5071759;28;20406;-82
2023/03/28 11:54:31;;;;;;;;;;;9.40;75.00;;;;;;5073935;28;19927;-79
2023/03/28 11:57:06;;;;;;;;;;;9.60;72.20;;;;;;5097620;28;19924;-81
2023/03/28 11:59:36;;;;;;;;;;;9.80;77.00;;;;;;5104528;28;19932;-81
2023/03/28 12:02:28;;;;;;;;;;;10.00;73.70;;;;;;5079218;28;19928;-81
2023/03/28 12:04:56;;;;;;;;;;;10.00;70.90;;;;;;5052125;28;20414;-81
2023/03/28 12:07:26;;;;;;;;;;;10.00;68.20;;;;;;5083199;28;19928;-82
2023/03/28 12:10:12;;;;;;;;;;;9.90;66.90;;;;;;5087009;28;19932;-81
2023/03/28 12:12:50;;;;;;;;;;;9.80;68.40;;;;;;5076731;28;19924;-81
2023/03/28 12:15:18;;;;;;;;;;;9.70;68.60;;;;;;5073375;28;19928;-81
2023/03/28 12:17:45;;;;;;;;;;;9.70;74.00;;;;;;5100469;28;19927;-81
2023/03/28 12:20:17;;;;;;;;;;;9.80;71.70;;;;;;5092194;28;19924;-81
2023/03/28 12:22:52;;;;;;;;;;;9.90;73.40;;;;;;5081419;28;19985;-81
2023/03/28 12:25:21;;;;;;;;;;;10.00;70.60;;;;;;5111007;28;19923;-80
2023/03/28 12:27:50;;;;;;;;;;;10.00;71.60;;;;;;5103389;28;20019;-79
2023/03/28 12:30:23;;;;;;;;;;;10.10;70.50;;;;;;5099568;28;19924;-80
2023/03/28 12:32:57;;;;;;;;;;;10.00;70.60;;;;;;5101166;28;19931;-80
2023/03/28 12:35:42;;;;;;;;;;;10.00;72.90;;;;;;5109524;28;19924;-79
2023/03/28 12:38:21;;;;;;;;;;;10.00;73.40;;;;;;5102732;28;19931;-79
2023/03/28 12:41:03;;;;;;;;;;;10.10;70.40;;;;;;5079697;28;19924;-79
2023/03/28 12:43:40;;;;;;;;;;;9.90;68.60;;;;;;5103134;28;19984;-79
2023/03/28 12:46:07;;;;;;;;;;;9.90;69.60;;;;;;5086288;28;19934;-80
2023/03/28 12:48:35;;;;;;;;;;;9.90;69.30;;;;;;5069742;28;19924;-79
2023/03/28 12:51:07;;;;;;;;;;;9.90;70.00;;;;;;5102841;28;19924;-79
2023/03/28 12:53:32;;;;;;;;;;;9.90;70.80;;;;;;5081832;28;19934;-79
2023/03/28 12:55:58;;;;;;;;;;;10.00;71.60;;;;;;5075569;28;19963;-79
2023/03/28 12:58:28;;;;;;;;;;;10.00;71.20;;;;;;5121244;28;19924;-79
2023/03/28 13:01:06;;;;;;;;;;;10.00;70.70;;;;;;5086539;27;19932;-79
2023/03/28 13:03:38;;;;;;;;;;;10.10;71.00;;;;;;5084467;28;19974;-79
2023/03/28 13:06:22;;;;;;;;;;;10.20;74.00;;;;;;5087916;28;19924;-79
2023/03/28 13:08:48;;;;;;;;;;;10.10;71.10;;;;;;5119680;28;19928;-79
2023/03/28 13:11:28;;;;;;;;;;;10.00;68.40;;;;;;5071915;27;19924;-79
2023/03/28 13:14:12;;;;;;;;;;;9.70;66.50;;;;;;5084044;28;19934;-79
2023/03/28 13:16:44;;;;;;;;;;;9.80;70.40;;;;;;5119853;28;19923;-79
2023/03/28 13:19:10;;;;;;;;;;;9.90;70.70;;;;;;5083668;28;20022;-79
2023/03/28 13:21:44;;;;;;;;;;;9.90;68.80;;;;;;5087843;27;19944;-84
2023/03/28 13:24:30;;;;;;;;;;;10.00;66.00;;;;;;5083735;28;19924;-84
2023/03/28 13:27:11;;;;;;;;;;;10.00;72.20;;;;;;5100611;28;19923;-82
2023/03/28 13:29:50;;;;;;;;;;;10.20;70.20;;;;;;5097436;28;19927;-82
2023/03/28 13:32:17;;;;;;;;;;;10.20;68.40;;;;;;5106035;28;19991;-81
2023/03/28 13:34:51;;;;;;;;;;;10.10;67.60;;;;;;5068718;28;19931;-83
2023/03/28 13:37:24;;;;;;;;;;;10.20;69.30;;;;;;5113192;28;20398;-81
2023/03/28 13:39:59;;;;;;;;;;;10.10;68.90;;;;;;5083016;28;19923;-82
2023/03/28 13:42:26;;;;;;;;;;;10.10;71.70;;;;;;5091498;28;19924;-82
2023/03/28 13:44:54;;;;;;;;;;;10.10;68.30;;;;;;5083988;28;19932;-82
2023/03/28 13:47:25;;;;;;;;;;;10.10;70.40;;;;;;5083454;28;19967;-83
2023/03/28 13:49:57;;;;;;;;;;;9.90;67.00;;;;;;5073284;28;20398;-81
2023/03/28 13:52:23;;;;;;;;;;;9.90;69.70;;;;;;5077620;28;19939;-82
2023/03/28 13:54:55;;;;;;;;;;;9.80;69.70;;;;;;5102331;28;19931;-83
2023/03/28 13:57:22;;;;;;;;;;;9.70;68.80;;;;;;5103352;27;19931;-81
2023/03/28 13:59:54;;;;;;;;;;;9.70;73.90;;;;;;5106444;28;20324;-81
2023/03/28 14:02:39;;;;;;;;;;;9.60;68.90;;;;;;5096231;28;20374;-82
2023/03/28 14:05:11;;;;;;;;;;;9.60;71.50;;;;;;5073968;28;19947;-82
2023/03/28 14:07:37;;;;;;;;;;;9.60;71.40;;;;;;5101208;28;19934;-82
2023/03/28 14:10:18;;;;;;;;;;;9.50;69.70;;;;;;5081538;28;19923;-81
2023/03/28 14:12:43;;;;;;;;;;;9.50;74.00;;;;;;5073917;27;20127;-81
2023/03/28 14:15:13;;;;;;;;;;;9.50;71.90;;;;;;5082352;28;19938;-82
2023/03/28 14:17:39;;;;;;;;;;;9.40;71.60;;;;;;5098885;28;19974;-82
2023/03/28 14:20:05;;;;;;;;;;;9.40;73.30;;;;;;5077964;28;19923;-80
2023/03/28 14:22:32;;;;;;;;;;;9.40;71.10;;;;;;5083387;28;19923;-81
2023/03/28 14:25:06;;;;;;;;;;;9.30;70.90;;;;;;5100421;28;19944;-81
2023/03/28 14:27:39;;;;;;;;;;;9.20;70.90;;;;;;5080184;28;19995;-81
2023/03/28 14:30:16;;;;;;;;;;;9.30;71.50;;;;;;5080914;28;19931;-81
2023/03/28 14:33:05;;;;;;;;;;;9.30;71.60;;;;;;5083225;28;19928;-80
2023/03/28 14:35:35;;;;;;;;;;;9.30;74.30;;;;;;5130023;27;19927;-81
2023/03/28 14:38:02;;;;;;;;;;;9.20;70.80;;;;;;5053442;28;19924;-81
2023/03/28 14:40:35;;;;;;;;;;;9.10;73.20;;;;;;5081916;28;19927;-81